Terminal Aerodrome Forecast
Issued by NWS Jackson, MS

Home | Current Version | Previous Version | Text Only | Print | Product List | Glossary On
Versions: 1 2 3 4 5 6 7 8 9 10 11 12 13
360
FTUS44 KMEG 231120
TAFTUP
TAF
KTUP 231120Z 2312/2412 10006KT P6SM FEW060 OVC250
     FM231800 18011KT P6SM SCT250
     FM240400 18014G21KT P6SM BKN015=

USA.gov is the U.S. government's official web portal to all federal, state and local government web resources and services.